sensor_id;sensor_type;location;lat;lon;timestamp;temperature;humidity
73572;DHT22;61854;48.510;-2.770;2023-05-07T00:02:20;15.30;99.90
73572;DHT22;61854;48.510;-2.770;2023-05-07T00:04:46;15.30;99.90
73572;DHT22;61854;48.510;-2.770;2023-05-07T00:07:11;15.30;99.90
73572;DHT22;61854;48.510;-2.770;2023-05-07T00:09:37;15.30;99.90
73572;DHT22;61854;48.510;-2.770;2023-05-07T00:12:02;15.30;99.90
73572;DHT22;61854;48.510;-2.770;2023-05-07T00:14:28;15.30;99.90
73572;DHT22;61854;48.510;-2.770;2023-05-07T00:16:55;15.30;99.90
73572;DHT22;61854;48.510;-2.770;2023-05-07T00:19:20;15.40;99.90
73572;DHT22;61854;48.510;-2.770;2023-05-07T00:21:46;15.40;99.90
73572;DHT22;61854;48.510;-2.770;2023-05-07T00:24:12;15.40;99.90
73572;DHT22;61854;48.510;-2.770;2023-05-07T00:26:37;15.40;99.90
73572;DHT22;61854;48.510;-2.770;2023-05-07T00:29:03;15.40;99.90
73572;DHT22;61854;48.510;-2.770;2023-05-07T00:31:28;15.40;99.90
73572;DHT22;61854;48.510;-2.770;2023-05-07T00:33:54;15.40;99.90
73572;DHT22;61854;48.510;-2.770;2023-05-07T00:36:19;15.40;99.90
73572;DHT22;61854;48.510;-2.770;2023-05-07T00:38:45;15.40;99.90
73572;DHT22;61854;48.510;-2.770;2023-05-07T00:41:10;15.40;99.90
73572;DHT22;61854;48.510;-2.770;2023-05-07T00:43:36;15.40;99.90
73572;DHT22;61854;48.510;-2.770;2023-05-07T00:46:01;15.40;99.90
73572;DHT22;61854;48.510;-2.770;2023-05-07T00:48:27;15.40;99.90
73572;DHT22;61854;48.510;-2.770;2023-05-07T00:50:53;15.40;99.90
73572;DHT22;61854;48.510;-2.770;2023-05-07T00:53:18;15.30;99.90
73572;DHT22;61854;48.510;-2.770;2023-05-07T00:55:44;15.40;99.90
73572;DHT22;61854;48.510;-2.770;2023-05-07T00:58:09;15.40;99.90
73572;DHT22;61854;48.510;-2.770;2023-05-07T01:00:35;15.40;99.90
73572;DHT22;61854;48.510;-2.770;2023-05-07T01:03:01;15.40;99.90
73572;DHT22;61854;48.510;-2.770;2023-05-07T01:05:26;15.40;99.90
73572;DHT22;61854;48.510;-2.770;2023-05-07T01:07:53;15.40;99.90
73572;DHT22;61854;48.510;-2.770;2023-05-07T01:10:19;15.40;99.90
73572;DHT22;61854;48.510;-2.770;2023-05-07T01:12:45;15.40;99.90
73572;DHT22;61854;48.510;-2.770;2023-05-07T01:15:12;15.40;99.90
73572;DHT22;61854;48.510;-2.770;2023-05-07T01:17:38;15.50;99.90
73572;DHT22;61854;48.510;-2.770;2023-05-07T01:20:05;15.50;99.90
73572;DHT22;61854;48.510;-2.770;2023-05-07T01:22:32;15.50;99.90
73572;DHT22;61854;48.510;-2.770;2023-05-07T01:25:00;15.50;99.90
73572;DHT22;61854;48.510;-2.770;2023-05-07T01:27:27;15.50;99.90
73572;DHT22;61854;48.510;-2.770;2023-05-07T01:29:52;15.40;99.90
73572;DHT22;61854;48.510;-2.770;2023-05-07T01:32:23;15.40;99.90
73572;DHT22;61854;48.510;-2.770;2023-05-07T01:34:52;15.40;99.90
73572;DHT22;61854;48.510;-2.770;2023-05-07T01:37:19;15.40;99.90
73572;DHT22;61854;48.510;-2.770;2023-05-07T01:39:46;15.30;99.90
73572;DHT22;61854;48.510;-2.770;2023-05-07T01:42:13;15.30;99.90
73572;DHT22;61854;48.510;-2.770;2023-05-07T01:44:38;15.30;99.90
73572;DHT22;61854;48.510;-2.770;2023-05-07T01:47:04;15.30;99.90
73572;DHT22;61854;48.510;-2.770;2023-05-07T01:49:29;15.30;99.90
73572;DHT22;61854;48.510;-2.770;2023-05-07T01:51:55;15.30;99.90
73572;DHT22;61854;48.510;-2.770;2023-05-07T01:54:25;15.30;99.90
73572;DHT22;61854;48.510;-2.770;2023-05-07T01:56:50;15.30;99.90
73572;DHT22;61854;48.510;-2.770;2023-05-07T01:59:16;15.30;99.90
73572;DHT22;61854;48.510;-2.770;2023-05-07T02:01:41;15.30;99.90
73572;DHT22;61854;48.510;-2.770;2023-05-07T02:04:07;15.30;99.90
73572;DHT22;61854;48.510;-2.770;2023-05-07T02:06:32;15.30;99.90
73572;DHT22;61854;48.510;-2.770;2023-05-07T02:08:58;15.30;99.90
73572;DHT22;61854;48.510;-2.770;2023-05-07T02:11:23;15.30;99.90
73572;DHT22;61854;48.510;-2.770;2023-05-07T02:13:50;15.30;99.90
73572;DHT22;61854;48.510;-2.770;2023-05-07T02:16:15;15.30;99.90
73572;DHT22;61854;48.510;-2.770;2023-05-07T02:18:41;15.20;99.90
73572;DHT22;61854;48.510;-2.770;2023-05-07T02:21:06;15.20;99.90
73572;DHT22;61854;48.510;-2.770;2023-05-07T02:23:32;15.20;99.90
73572;DHT22;61854;48.510;-2.770;2023-05-07T02:25:58;15.20;99.90
73572;DHT22;61854;48.510;-2.770;2023-05-07T02:28:23;15.20;99.90
73572;DHT22;61854;48.510;-2.770;2023-05-07T02:30:49;15.20;99.90
73572;DHT22;61854;48.510;-2.770;2023-05-07T02:33:14;15.20;99.90
73572;DHT22;61854;48.510;-2.770;2023-05-07T02:35:40;15.10;99.90
73572;DHT22;61854;48.510;-2.770;2023-05-07T02:38:05;15.10;99.90
73572;DHT22;61854;48.510;-2.770;2023-05-07T02:40:31;15.10;99.90
73572;DHT22;61854;48.510;-2.770;2023-05-07T02:42:59;15.00;99.90
73572;DHT22;61854;48.510;-2.770;2023-05-07T02:45:24;15.00;99.90
73572;DHT22;61854;48.510;-2.770;2023-05-07T02:47:50;14.90;99.90
73572;DHT22;61854;48.510;-2.770;2023-05-07T02:50:15;14.90;99.90
73572;DHT22;61854;48.510;-2.770;2023-05-07T02:52:41;14.90;99.90
73572;DHT22;61854;48.510;-2.770;2023-05-07T02:55:07;14.90;99.90
73572;DHT22;61854;48.510;-2.770;2023-05-07T02:57:32;14.90;99.90
73572;DHT22;61854;48.510;-2.770;2023-05-07T02:59:58;14.90;99.90
73572;DHT22;61854;48.510;-2.770;2023-05-07T03:02:23;14.90;99.90
73572;DHT22;61854;48.510;-2.770;2023-05-07T03:04:49;14.90;99.90
73572;DHT22;61854;48.510;-2.770;2023-05-07T03:07:14;14.90;99.90
73572;DHT22;61854;48.510;-2.770;2023-05-07T03:09:40;14.90;99.90
73572;DHT22;61854;48.510;-2.770;2023-05-07T03:12:05;14.90;99.90
73572;DHT22;61854;48.510;-2.770;2023-05-07T03:14:31;14.90;99.90
73572;DHT22;61854;48.510;-2.770;2023-05-07T03:16:56;14.90;99.90
73572;DHT22;61854;48.510;-2.770;2023-05-07T03:19:22;14.90;99.90
73572;DHT22;61854;48.510;-2.770;2023-05-07T03:21:47;14.80;99.90
73572;DHT22;61854;48.510;-2.770;2023-05-07T03:24:13;14.80;99.90
73572;DHT22;61854;48.510;-2.770;2023-05-07T03:26:38;14.80;99.90
73572;DHT22;61854;48.510;-2.770;2023-05-07T03:29:04;14.80;99.90
73572;DHT22;61854;48.510;-2.770;2023-05-07T03:31:29;14.80;99.90
73572;DHT22;61854;48.510;-2.770;2023-05-07T03:33:56;14.80;99.90
73572;DHT22;61854;48.510;-2.770;2023-05-07T03:36:22;14.80;99.90
73572;DHT22;61854;48.510;-2.770;2023-05-07T03:38:48;14.70;99.90
73572;DHT22;61854;48.510;-2.770;2023-05-07T03:41:13;14.70;99.90
73572;DHT22;61854;48.510;-2.770;2023-05-07T03:43:39;14.70;99.90
73572;DHT22;61854;48.510;-2.770;2023-05-07T03:46:04;14.70;99.90
73572;DHT22;61854;48.510;-2.770;2023-05-07T03:48:30;14.80;99.90
73572;DHT22;61854;48.510;-2.770;2023-05-07T03:50:57;14.70;99.90
73572;DHT22;61854;48.510;-2.770;2023-05-07T03:53:22;14.70;99.90
73572;DHT22;61854;48.510;-2.770;2023-05-07T03:55:48;14.70;99.90
73572;DHT22;61854;48.510;-2.770;2023-05-07T03:58:13;14.70;99.90
73572;DHT22;61854;48.510;-2.770;2023-05-07T04:00:39;14.70;99.90
73572;DHT22;61854;48.510;-2.770;2023-05-07T04:03:05;14.70;99.90
73572;DHT22;61854;48.510;-2.770;2023-05-07T04:05:31;14.70;99.90
73572;DHT22;61854;48.510;-2.770;2023-05-07T04:08:00;14.70;99.90
73572;DHT22;61854;48.510;-2.770;2023-05-07T04:10:25;14.60;99.90
73572;DHT22;61854;48.510;-2.770;2023-05-07T04:12:51;14.60;99.90
73572;DHT22;61854;48.510;-2.770;2023-05-07T04:15:16;14.60;99.90
73572;DHT22;61854;48.510;-2.770;2023-05-07T04:17:42;14.60;99.90
73572;DHT22;61854;48.510;-2.770;2023-05-07T04:20:14;14.50;99.90
73572;DHT22;61854;48.510;-2.770;2023-05-07T04:22:39;14.50;99.90
73572;DHT22;61854;48.510;-2.770;2023-05-07T04:25:05;14.50;99.90
73572;DHT22;61854;48.510;-2.770;2023-05-07T04:27:31;14.50;99.90
73572;DHT22;61854;48.510;-2.770;2023-05-07T04:29:57;14.40;99.90
73572;DHT22;61854;48.510;-2.770;2023-05-07T04:32:23;14.40;99.90
73572;DHT22;61854;48.510;-2.770;2023-05-07T04:34:50;14.50;99.90
73572;DHT22;61854;48.510;-2.770;2023-05-07T04:37:15;14.50;99.90
73572;DHT22;61854;48.510;-2.770;2023-05-07T04:39:41;14.50;99.90
73572;DHT22;61854;48.510;-2.770;2023-05-07T04:42:06;14.40;99.90
73572;DHT22;61854;48.510;-2.770;2023-05-07T04:44:34;14.40;99.90
73572;DHT22;61854;48.510;-2.770;2023-05-07T04:47:00;14.40;99.90
73572;DHT22;61854;48.510;-2.770;2023-05-07T04:49:25;14.30;99.90
73572;DHT22;61854;48.510;-2.770;2023-05-07T04:51:51;14.30;99.90
73572;DHT22;61854;48.510;-2.770;2023-05-07T04:54:16;14.30;99.90
73572;DHT22;61854;48.510;-2.770;2023-05-07T04:56:42;14.30;99.90
73572;DHT22;61854;48.510;-2.770;2023-05-07T04:59:07;14.20;99.90
73572;DHT22;61854;48.510;-2.770;2023-05-07T05:01:33;14.20;99.90
73572;DHT22;61854;48.510;-2.770;2023-05-07T05:03:58;14.20;99.90
73572;DHT22;61854;48.510;-2.770;2023-05-07T05:06:25;14.30;99.90
73572;DHT22;61854;48.510;-2.770;2023-05-07T05:08:51;14.20;99.90
73572;DHT22;61854;48.510;-2.770;2023-05-07T05:11:16;14.20;99.90
73572;DHT22;61854;48.510;-2.770;2023-05-07T05:13:42;14.30;99.90
73572;DHT22;61854;48.510;-2.770;2023-05-07T05:16:07;14.20;99.90
73572;DHT22;61854;48.510;-2.770;2023-05-07T05:18:33;14.30;99.90
73572;DHT22;61854;48.510;-2.770;2023-05-07T05:20:58;14.30;99.90
73572;DHT22;61854;48.510;-2.770;2023-05-07T05:23:24;14.30;99.90
73572;DHT22;61854;48.510;-2.770;2023-05-07T05:25:49;14.30;99.90
73572;DHT22;61854;48.510;-2.770;2023-05-07T05:28:15;14.30;99.90
73572;DHT22;61854;48.510;-2.770;2023-05-07T05:30:40;14.30;99.90
73572;DHT22;61854;48.510;-2.770;2023-05-07T05:33:06;14.30;99.90
73572;DHT22;61854;48.510;-2.770;2023-05-07T05:35:31;14.30;99.90
73572;DHT22;61854;48.510;-2.770;2023-05-07T05:37:57;14.30;99.90
73572;DHT22;61854;48.510;-2.770;2023-05-07T05:40:22;14.30;99.90
73572;DHT22;61854;48.510;-2.770;2023-05-07T05:42:48;14.30;99.90
73572;DHT22;61854;48.510;-2.770;2023-05-07T05:45:13;14.30;99.90
73572;DHT22;61854;48.510;-2.770;2023-05-07T05:47:39;14.40;99.90
73572;DHT22;61854;48.510;-2.770;2023-05-07T05:50:05;14.30;99.90
73572;DHT22;61854;48.510;-2.770;2023-05-07T05:52:31;14.30;99.90
73572;DHT22;61854;48.510;-2.770;2023-05-07T05:54:57;14.30;99.90
73572;DHT22;61854;48.510;-2.770;2023-05-07T05:57:22;14.40;99.90
73572;DHT22;61854;48.510;-2.770;2023-05-07T05:59:48;14.40;99.90
73572;DHT22;61854;48.510;-2.770;2023-05-07T06:02:13;14.50;99.90
73572;DHT22;61854;48.510;-2.770;2023-05-07T06:04:39;14.50;99.90
73572;DHT22;61854;48.510;-2.770;2023-05-07T06:07:05;14.50;99.90
73572;DHT22;61854;48.510;-2.770;2023-05-07T06:09:30;14.50;99.90
73572;DHT22;61854;48.510;-2.770;2023-05-07T06:11:56;14.40;99.90
73572;DHT22;61854;48.510;-2.770;2023-05-07T06:14:21;14.40;99.90
73572;DHT22;61854;48.510;-2.770;2023-05-07T06:16:47;14.40;99.90
73572;DHT22;61854;48.510;-2.770;2023-05-07T06:19:12;14.40;99.90
73572;DHT22;61854;48.510;-2.770;2023-05-07T06:21:38;14.40;99.90
73572;DHT22;61854;48.510;-2.770;2023-05-07T06:24:04;14.50;99.90
73572;DHT22;61854;48.510;-2.770;2023-05-07T06:26:29;14.50;99.90
73572;DHT22;61854;48.510;-2.770;2023-05-07T06:28:55;14.50;99.80
73572;DHT22;61854;48.510;-2.770;2023-05-07T06:31:21;14.50;99.70
73572;DHT22;61854;48.510;-2.770;2023-05-07T06:33:46;14.50;99.70
73572;DHT22;61854;48.510;-2.770;2023-05-07T06:36:12;14.50;99.80
73572;DHT22;61854;48.510;-2.770;2023-05-07T06:38:37;14.50;99.60
73572;DHT22;61854;48.510;-2.770;2023-05-07T06:41:03;14.50;99.50
73572;DHT22;61854;48.510;-2.770;2023-05-07T06:43:28;14.60;99.50
73572;DHT22;61854;48.510;-2.770;2023-05-07T06:45:54;14.50;99.30
73572;DHT22;61854;48.510;-2.770;2023-05-07T06:48:19;14.50;99.40
73572;DHT22;61854;48.510;-2.770;2023-05-07T06:50:45;14.50;99.60
73572;DHT22;61854;48.510;-2.770;2023-05-07T06:53:11;14.60;99.70
73572;DHT22;61854;48.510;-2.770;2023-05-07T06:55:36;14.50;99.60
73572;DHT22;61854;48.510;-2.770;2023-05-07T06:58:03;14.50;99.50
73572;DHT22;61854;48.510;-2.770;2023-05-07T07:00:29;14.50;99.60
73572;DHT22;61854;48.510;-2.770;2023-05-07T07:02:55;14.50;99.80
73572;DHT22;61854;48.510;-2.770;2023-05-07T07:05:20;14.50;99.60
73572;DHT22;61854;48.510;-2.770;2023-05-07T07:07:46;14.50;99.60
73572;DHT22;61854;48.510;-2.770;2023-05-07T07:10:20;14.40;99.60
73572;DHT22;61854;48.510;-2.770;2023-05-07T07:12:46;14.40;99.90
73572;DHT22;61854;48.510;-2.770;2023-05-07T07:15:12;14.40;99.90
73572;DHT22;61854;48.510;-2.770;2023-05-07T07:17:38;14.40;99.90
73572;DHT22;61854;48.510;-2.770;2023-05-07T07:20:03;14.50;99.90
73572;DHT22;61854;48.510;-2.770;2023-05-07T07:22:29;14.50;99.70
73572;DHT22;61854;48.510;-2.770;2023-05-07T07:24:55;14.40;99.60
73572;DHT22;61854;48.510;-2.770;2023-05-07T07:27:20;14.40;99.80
73572;DHT22;61854;48.510;-2.770;2023-05-07T07:29:46;14.40;99.80
73572;DHT22;61854;48.510;-2.770;2023-05-07T07:32:11;14.40;99.90
73572;DHT22;61854;48.510;-2.770;2023-05-07T07:34:36;14.40;99.90
73572;DHT22;61854;48.510;-2.770;2023-05-07T07:37:02;14.50;99.90
73572;DHT22;61854;48.510;-2.770;2023-05-07T07:39:30;14.50;99.90
73572;DHT22;61854;48.510;-2.770;2023-05-07T07:41:56;14.50;99.80
73572;DHT22;61854;48.510;-2.770;2023-05-07T07:44:22;14.50;99.70
73572;DHT22;61854;48.510;-2.770;2023-05-07T07:46:47;14.50;99.90
73572;DHT22;61854;48.510;-2.770;2023-05-07T07:49:13;14.60;99.90
73572;DHT22;61854;48.510;-2.770;2023-05-07T07:51:38;14.70;99.90
73572;DHT22;61854;48.510;-2.770;2023-05-07T07:54:04;14.70;99.90
73572;DHT22;61854;48.510;-2.770;2023-05-07T07:56:29;14.80;99.30
73572;DHT22;61854;48.510;-2.770;2023-05-07T07:58:55;14.80;99.10
73572;DHT22;61854;48.510;-2.770;2023-05-07T08:01:20;14.80;99.00
73572;DHT22;61854;48.510;-2.770;2023-05-07T08:03:46;14.70;98.90
73572;DHT22;61854;48.510;-2.770;2023-05-07T08:06:11;14.70;99.10
73572;DHT22;61854;48.510;-2.770;2023-05-07T08:08:37;14.70;99.00
73572;DHT22;61854;48.510;-2.770;2023-05-07T08:11:02;14.60;99.00
73572;DHT22;61854;48.510;-2.770;2023-05-07T08:13:28;14.60;99.30
73572;DHT22;61854;48.510;-2.770;2023-05-07T08:15:53;14.60;99.40
73572;DHT22;61854;48.510;-2.770;2023-05-07T08:18:19;14.60;99.50
73572;DHT22;61854;48.510;-2.770;2023-05-07T08:20:44;14.60;99.40
73572;DHT22;61854;48.510;-2.770;2023-05-07T08:23:10;14.60;99.40
73572;DHT22;61854;48.510;-2.770;2023-05-07T08:25:35;14.60;99.60
73572;DHT22;61854;48.510;-2.770;2023-05-07T08:28:01;14.70;99.70
73572;DHT22;61854;48.510;-2.770;2023-05-07T08:30:28;14.70;99.70
73572;DHT22;61854;48.510;-2.770;2023-05-07T08:32:54;14.70;99.70
73572;DHT22;61854;48.510;-2.770;2023-05-07T08:35:19;14.70;99.80
73572;DHT22;61854;48.510;-2.770;2023-05-07T08:37:46;14.70;99.70
73572;DHT22;61854;48.510;-2.770;2023-05-07T08:40:12;14.80;99.10
73572;DHT22;61854;48.510;-2.770;2023-05-07T08:42:37;14.70;98.80
73572;DHT22;61854;48.510;-2.770;2023-05-07T08:45:03;14.60;99.00
73572;DHT22;61854;48.510;-2.770;2023-05-07T08:47:34;14.60;99.10
73572;DHT22;61854;48.510;-2.770;2023-05-07T08:50:01;14.70;99.20
73572;DHT22;61854;48.510;-2.770;2023-05-07T08:52:27;14.70;99.20
73572;DHT22;61854;48.510;-2.770;2023-05-07T08:54:52;14.70;99.10
73572;DHT22;61854;48.510;-2.770;2023-05-07T08:57:18;14.80;99.50
73572;DHT22;61854;48.510;-2.770;2023-05-07T08:59:45;14.80;99.00
73572;DHT22;61854;48.510;-2.770;2023-05-07T09:02:11;14.80;98.60
73572;DHT22;61854;48.510;-2.770;2023-05-07T09:04:36;14.80;98.70
73572;DHT22;61854;48.510;-2.770;2023-05-07T09:07:02;14.80;98.70
73572;DHT22;61854;48.510;-2.770;2023-05-07T09:09:32;14.90;98.70
73572;DHT22;61854;48.510;-2.770;2023-05-07T09:11:57;14.90;98.60
73572;DHT22;61854;48.510;-2.770;2023-05-07T09:14:27;15.00;98.40
73572;DHT22;61854;48.510;-2.770;2023-05-07T09:16:53;15.00;98.00
73572;DHT22;61854;48.510;-2.770;2023-05-07T09:19:22;15.00;98.30
73572;DHT22;61854;48.510;-2.770;2023-05-07T09:21:48;15.10;98.30
73572;DHT22;61854;48.510;-2.770;2023-05-07T09:24:15;15.10;98.20
73572;DHT22;61854;48.510;-2.770;2023-05-07T09:26:40;15.10;97.80
73572;DHT22;61854;48.510;-2.770;2023-05-07T09:29:07;15.10;98.00
73572;DHT22;61854;48.510;-2.770;2023-05-07T09:31:35;15.20;98.20
73572;DHT22;61854;48.510;-2.770;2023-05-07T09:34:01;15.30;98.10
73572;DHT22;61854;48.510;-2.770;2023-05-07T09:36:27;15.40;97.70
73572;DHT22;61854;48.510;-2.770;2023-05-07T09:38:52;15.40;97.70
73572;DHT22;61854;48.510;-2.770;2023-05-07T09:41:19;15.50;97.60
73572;DHT22;61854;48.510;-2.770;2023-05-07T09:43:44;15.60;97.00
73572;DHT22;61854;48.510;-2.770;2023-05-07T09:46:13;15.60;96.40
73572;DHT22;61854;48.510;-2.770;2023-05-07T09:48:40;15.60;96.40
73572;DHT22;61854;48.510;-2.770;2023-05-07T09:53:37;15.60;96.30
73572;DHT22;61854;48.510;-2.770;2023-05-07T09:56:03;15.60;96.30
73572;DHT22;61854;48.510;-2.770;2023-05-07T09:58:28;15.60;96.00
73572;DHT22;61854;48.510;-2.770;2023-05-07T10:00:54;15.60;95.80
73572;DHT22;61854;48.510;-2.770;2023-05-07T10:03:21;15.50;95.80
73572;DHT22;61854;48.510;-2.770;2023-05-07T10:05:47;15.40;95.90
73572;DHT22;61854;48.510;-2.770;2023-05-07T10:08:13;15.40;96.20
73572;DHT22;61854;48.510;-2.770;2023-05-07T10:10:39;15.40;96.10
73572;DHT22;61854;48.510;-2.770;2023-05-07T10:13:05;15.30;96.30
73572;DHT22;61854;48.510;-2.770;2023-05-07T10:15:35;15.30;96.60
73572;DHT22;61854;48.510;-2.770;2023-05-07T10:18:01;15.30;96.60
73572;DHT22;61854;48.510;-2.770;2023-05-07T10:20:28;15.20;96.80
73572;DHT22;61854;48.510;-2.770;2023-05-07T10:22:53;15.20;97.50
73572;DHT22;61854;48.510;-2.770;2023-05-07T10:25:22;15.20;97.30
73572;DHT22;61854;48.510;-2.770;2023-05-07T10:27:49;15.20;97.50
73572;DHT22;61854;48.510;-2.770;2023-05-07T10:30:38;15.20;97.20
73572;DHT22;61854;48.510;-2.770;2023-05-07T10:33:06;15.10;97.30
73572;DHT22;61854;48.510;-2.770;2023-05-07T10:35:35;15.10;97.10
73572;DHT22;61854;48.510;-2.770;2023-05-07T10:38:01;15.00;97.60
73572;DHT22;61854;48.510;-2.770;2023-05-07T10:40:27;15.00;98.00
73572;DHT22;61854;48.510;-2.770;2023-05-07T10:43:02;15.00;98.00
73572;DHT22;61854;48.510;-2.770;2023-05-07T10:45:30;15.00;98.10
73572;DHT22;61854;48.510;-2.770;2023-05-07T10:48:05;15.00;97.90
73572;DHT22;61854;48.510;-2.770;2023-05-07T10:50:31;15.00;98.10
73572;DHT22;61854;48.510;-2.770;2023-05-07T10:55:41;15.00;98.20
73572;DHT22;61854;48.510;-2.770;2023-05-07T10:58:25;15.00;98.20
73572;DHT22;61854;48.510;-2.770;2023-05-07T11:00:55;15.00;98.50
73572;DHT22;61854;48.510;-2.770;2023-05-07T11:03:21;15.10;98.40
73572;DHT22;61854;48.510;-2.770;2023-05-07T11:05:47;15.20;98.30
73572;DHT22;61854;48.510;-2.770;2023-05-07T11:11:17;15.30;97.60
73572;DHT22;61854;48.510;-2.770;2023-05-07T11:13:46;15.30;97.30
73572;DHT22;61854;48.510;-2.770;2023-05-07T11:16:21;15.20;97.20
73572;DHT22;61854;48.510;-2.770;2023-05-07T11:18:51;15.20;97.20
73572;DHT22;61854;48.510;-2.770;2023-05-07T11:23:58;15.20;97.30
73572;DHT22;61854;48.510;-2.770;2023-05-07T11:26:24;15.20;97.50
73572;DHT22;61854;48.510;-2.770;2023-05-07T11:28:50;15.20;97.20
73572;DHT22;61854;48.510;-2.770;2023-05-07T11:31:17;15.20;97.00
73572;DHT22;61854;48.510;-2.770;2023-05-07T11:33:45;15.20;97.00
73572;DHT22;61854;48.510;-2.770;2023-05-07T11:36:10;15.30;97.00
73572;DHT22;61854;48.510;-2.770;2023-05-07T11:38:36;15.30;97.00
73572;DHT22;61854;48.510;-2.770;2023-05-07T11:41:02;15.30;97.00
73572;DHT22;61854;48.510;-2.770;2023-05-07T11:43:30;15.30;96.90
73572;DHT22;61854;48.510;-2.770;2023-05-07T11:46:04;15.30;96.80
73572;DHT22;61854;48.510;-2.770;2023-05-07T11:48:30;15.20;96.70
73572;DHT22;61854;48.510;-2.770;2023-05-07T11:53:27;15.20;96.90
73572;DHT22;61854;48.510;-2.770;2023-05-07T11:55:53;15.10;97.00
73572;DHT22;61854;48.510;-2.770;2023-05-07T11:58:22;15.10;97.10
73572;DHT22;61854;48.510;-2.770;2023-05-07T12:00:51;15.10;97.00
73572;DHT22;61854;48.510;-2.770;2023-05-07T12:03:17;15.10;97.10
73572;DHT22;61854;48.510;-2.770;2023-05-07T12:05:46;15.20;97.00
73572;DHT22;61854;48.510;-2.770;2023-05-07T12:08:15;15.20;96.90
73572;DHT22;61854;48.510;-2.770;2023-05-07T12:10:43;15.10;97.00
73572;DHT22;61854;48.510;-2.770;2023-05-07T12:15:41;15.20;96.40
73572;DHT22;61854;48.510;-2.770;2023-05-07T12:18:07;15.20;96.60
73572;DHT22;61854;48.510;-2.770;2023-05-07T12:20:33;15.20;96.70
73572;DHT22;61854;48.510;-2.770;2023-05-07T12:22:59;15.20;96.40
73572;DHT22;61854;48.510;-2.770;2023-05-07T12:25:24;15.20;96.30
73572;DHT22;61854;48.510;-2.770;2023-05-07T12:27:53;15.10;96.40
73572;DHT22;61854;48.510;-2.770;2023-05-07T12:30:18;15.20;96.60
73572;DHT22;61854;48.510;-2.770;2023-05-07T12:32:44;15.20;96.90
73572;DHT22;61854;48.510;-2.770;2023-05-07T12:35:10;15.10;97.30
73572;DHT22;61854;48.510;-2.770;2023-05-07T12:37:36;15.20;97.00
73572;DHT22;61854;48.510;-2.770;2023-05-07T12:40:05;15.20;96.90
73572;DHT22;61854;48.510;-2.770;2023-05-07T12:42:35;15.20;97.00
73572;DHT22;61854;48.510;-2.770;2023-05-07T12:45:07;15.20;96.70
73572;DHT22;61854;48.510;-2.770;2023-05-07T12:47:32;15.20;96.60
73572;DHT22;61854;48.510;-2.770;2023-05-07T12:49:58;15.30;96.60
73572;DHT22;61854;48.510;-2.770;2023-05-07T12:52:24;15.40;96.10
73572;DHT22;61854;48.510;-2.770;2023-05-07T12:54:52;15.40;95.80
73572;DHT22;61854;48.510;-2.770;2023-05-07T12:57:18;15.50;95.90
73572;DHT22;61854;48.510;-2.770;2023-05-07T12:59:44;15.60;96.30
73572;DHT22;61854;48.510;-2.770;2023-05-07T13:02:10;15.70;95.40
73572;DHT22;61854;48.510;-2.770;2023-05-07T13:04:35;15.70;95.30
73572;DHT22;61854;48.510;-2.770;2023-05-07T13:07:01;15.70;95.10
73572;DHT22;61854;48.510;-2.770;2023-05-07T13:09:27;15.70;94.90
73572;DHT22;61854;48.510;-2.770;2023-05-07T13:11:54;15.70;94.70
73572;DHT22;61854;48.510;-2.770;2023-05-07T13:14:20;15.70;94.80
73572;DHT22;61854;48.510;-2.770;2023-05-07T13:16:46;15.70;95.00
73572;DHT22;61854;48.510;-2.770;2023-05-07T13:19:12;15.70;94.80
73572;DHT22;61854;48.510;-2.770;2023-05-07T13:21:37;15.70;95.30
73572;DHT22;61854;48.510;-2.770;2023-05-07T13:24:03;15.70;94.80
73572;DHT22;61854;48.510;-2.770;2023-05-07T13:26:31;15.60;94.20
73572;DHT22;61854;48.510;-2.770;2023-05-07T13:28:57;15.60;94.20
73572;DHT22;61854;48.510;-2.770;2023-05-07T13:31:22;15.60;94.00
73572;DHT22;61854;48.510;-2.770;2023-05-07T13:33:48;15.50;94.30
73572;DHT22;61854;48.510;-2.770;2023-05-07T13:36:14;15.60;94.90
73572;DHT22;61854;48.510;-2.770;2023-05-07T13:38:39;15.60;94.20
73572;DHT22;61854;48.510;-2.770;2023-05-07T13:41:05;15.70;94.00
73572;DHT22;61854;48.510;-2.770;2023-05-07T13:43:31;15.70;93.80
73572;DHT22;61854;48.510;-2.770;2023-05-07T13:45:59;15.70;93.90
73572;DHT22;61854;48.510;-2.770;2023-05-07T13:48:24;15.70;93.70
73572;DHT22;61854;48.510;-2.770;2023-05-07T13:50:50;15.70;93.70
73572;DHT22;61854;48.510;-2.770;2023-05-07T13:53:15;15.70;93.70
73572;DHT22;61854;48.510;-2.770;2023-05-07T13:55:43;15.80;94.00
73572;DHT22;61854;48.510;-2.770;2023-05-07T13:58:09;15.80;93.70
73572;DHT22;61854;48.510;-2.770;2023-05-07T14:00:34;15.80;93.10
73572;DHT22;61854;48.510;-2.770;2023-05-07T14:03:00;15.80;93.30
73572;DHT22;61854;48.510;-2.770;2023-05-07T14:05:26;15.80;93.20
73572;DHT22;61854;48.510;-2.770;2023-05-07T14:07:53;15.80;93.30
73572;DHT22;61854;48.510;-2.770;2023-05-07T14:10:19;15.80;93.40
73572;DHT22;61854;48.510;-2.770;2023-05-07T14:12:45;15.70;93.50
73572;DHT22;61854;48.510;-2.770;2023-05-07T14:15:10;15.60;93.50
73572;DHT22;61854;48.510;-2.770;2023-05-07T14:17:36;15.60;93.80
73572;DHT22;61854;48.510;-2.770;2023-05-07T14:20:02;15.50;94.00
73572;DHT22;61854;48.510;-2.770;2023-05-07T14:22:28;15.50;94.10
73572;DHT22;61854;48.510;-2.770;2023-05-07T14:24:53;15.50;94.20
73572;DHT22;61854;48.510;-2.770;2023-05-07T14:27:19;15.50;94.00
73572;DHT22;61854;48.510;-2.770;2023-05-07T14:29:44;15.50;94.10
73572;DHT22;61854;48.510;-2.770;2023-05-07T14:32:10;15.40;94.20
73572;DHT22;61854;48.510;-2.770;2023-05-07T14:34:36;15.30;94.50
73572;DHT22;61854;48.510;-2.770;2023-05-07T14:37:01;15.30;94.40
73572;DHT22;61854;48.510;-2.770;2023-05-07T14:39:27;15.40;94.70
73572;DHT22;61854;48.510;-2.770;2023-05-07T14:41:53;15.40;94.50
73572;DHT22;61854;48.510;-2.770;2023-05-07T14:44:20;15.40;94.20
73572;DHT22;61854;48.510;-2.770;2023-05-07T14:46:46;15.40;94.20
73572;DHT22;61854;48.510;-2.770;2023-05-07T14:49:11;15.40;94.50
73572;DHT22;61854;48.510;-2.770;2023-05-07T14:51:45;15.40;94.70
73572;DHT22;61854;48.510;-2.770;2023-05-07T14:54:11;15.30;94.50
73572;DHT22;61854;48.510;-2.770;2023-05-07T14:56:40;15.30;94.90
73572;DHT22;61854;48.510;-2.770;2023-05-07T14:59:06;15.30;94.80
73572;DHT22;61854;48.510;-2.770;2023-05-07T15:01:32;15.30;94.60
73572;DHT22;61854;48.510;-2.770;2023-05-07T15:03:57;15.30;94.70
73572;DHT22;61854;48.510;-2.770;2023-05-07T15:06:23;15.30;95.20
73572;DHT22;61854;48.510;-2.770;2023-05-07T15:08:49;15.40;95.30
73572;DHT22;61854;48.510;-2.770;2023-05-07T15:11:14;15.40;95.20
73572;DHT22;61854;48.510;-2.770;2023-05-07T15:13:41;15.40;95.00
73572;DHT22;61854;48.510;-2.770;2023-05-07T15:16:07;15.40;94.80
73572;DHT22;61854;48.510;-2.770;2023-05-07T15:18:32;15.40;95.30
73572;DHT22;61854;48.510;-2.770;2023-05-07T15:20:58;15.40;94.50
73572;DHT22;61854;48.510;-2.770;2023-05-07T15:23:24;15.40;94.20
73572;DHT22;61854;48.510;-2.770;2023-05-07T15:25:49;15.30;94.30